24.6°F
Current conditions from King Hill
Updated every 5 minutes
 
  Monday December 22, 2014

Station Historical Data
 
Daily Summary for December 22, 2014 Units:  English    Metric   Both
« Previous Day
Next Day »
Daily Weekly Monthly Yearly Custom
  Current: High: Low: Average:
Temperature: 24.6 °F 29.3 °F 20.9 °F 24 °F
Dew Point: 23.1 °F 26.7 °F 19.7 °F 22.4 °F
Humidity: 94% 96% 87% 94%
Wind Speed: 0.0mph 0.0mph 0.0mph 0mph
Wind Gust: 0.0mph 0.0mph - -
WindCalm - - North
Pressure: 30.26 in 30.37 in 30.26 in -
Precipitation: 0.00 in      
Historical Graphs
 
 
Tabular Data for December 22, 2014
Time Temperature Dew Point Pressure Wind Wind Speed Wind Gust Humidity Daily Rainfall
00:01 21.8 °F 20.6 °F 30.36 in Calm     95% 0.00 in
00:06 21.8 °F 20.6 °F 30.36 in Calm     95% 0.00 in
00:11 21.7 °F 20.5 °F 30.36 in Calm     95% 0.00 in
00:16 21.8 °F 20.6 °F 30.36 in Calm     95% 0.00 in
00:21 21.7 °F 20.5 °F 30.36 in Calm     95% 0.00 in
00:26 21.8 °F 20.6 °F 30.36 in Calm     95% 0.00 in
00:31 21.8 °F 20.6 °F 30.36 in Calm     95% 0.00 in
00:36 21.8 °F 20.6 °F 30.36 in Calm     95% 0.00 in
00:41 21.8 °F 20.6 °F 30.36 in Calm     95% 0.00 in
00:46 21.9 °F 20.7 °F 30.36 in Calm     95% 0.00 in
00:51 21.8 °F 20.8 °F 30.36 in Calm     96% 0.00 in
00:56 21.8 °F 20.6 °F 30.35 in Calm     95% 0.00 in
01:01 21.8 °F 20.6 °F 30.36 in Calm     95% 0.00 in
01:06 21.7 °F 20.5 °F 30.36 in Calm     95% 0.00 in
01:11 21.7 °F 20.5 °F 30.36 in Calm     95% 0.00 in
01:16 21.8 °F 20.6 °F 30.36 in Calm     95% 0.00 in
01:20 21.9 °F 20.7 °F 30.36 in Calm     95% 0.00 in
01:26 22.2 °F 21.2 °F 30.35 in Calm     96% 0.00 in
01:31 22.2 °F 21.2 °F 30.36 in Calm     96% 0.00 in
01:36 22.1 °F 20.9 °F 30.36 in Calm     95% 0.00 in
01:41 22.0 °F 20.8 °F 30.36 in Calm     95% 0.00 in
01:46 22.0 °F 21.0 °F 30.36 in Calm     96% 0.00 in
01:51 22.2 °F 21.2 °F 30.36 in Calm     96% 0.00 in
01:56 22.3 °F 21.3 °F 30.36 in Calm     96% 0.00 in
02:00 22.4 °F 21.4 °F 30.36 in Calm     96% 0.00 in
02:06 22.4 °F 21.4 °F 30.36 in Calm     96% 0.00 in
02:11 22.5 °F 21.5 °F 30.36 in Calm     96% 0.00 in
02:16 22.5 °F 21.5 °F 30.36 in Calm     96% 0.00 in
02:20 22.3 °F 21.1 °F 30.36 in Calm     95% 0.00 in
02:25 22.1 °F 20.9 °F 30.36 in Calm     95% 0.00 in
02:31 22.0 °F 20.8 °F 30.36 in Calm     95% 0.00 in
02:36 22.0 °F 20.8 °F 30.36 in Calm     95% 0.00 in
02:40 22.0 °F 20.8 °F 30.36 in Calm     95% 0.00 in
02:45 21.9 °F 20.7 °F 30.36 in Calm     95% 0.00 in
02:51 21.8 °F 20.6 °F 30.36 in Calm     95% 0.00 in
02:56 21.7 °F 20.5 °F 30.36 in Calm     95% 0.00 in
03:00 21.7 °F 20.5 °F 30.36 in Calm     95% 0.00 in
03:05 21.7 °F 20.5 °F 30.36 in Calm     95% 0.00 in
03:11 21.8 °F 20.6 °F 30.36 in Calm     95% 0.00 in
03:16 21.8 °F 20.6 °F 30.35 in Calm     95% 0.00 in
03:20 21.9 °F 20.9 °F 30.35 in Calm     96% 0.00 in
03:25 21.9 °F 20.7 °F 30.36 in Calm     95% 0.00 in
03:31 21.8 °F 20.6 °F 30.35 in Calm     95% 0.00 in
03:36 21.9 °F 20.9 °F 30.35 in Calm     96% 0.00 in
03:41 22.0 °F 21.0 °F 30.35 in Calm     96% 0.00 in
03:46 22.0 °F 21.0 °F 30.35 in Calm     96% 0.00 in
03:51 22.0 °F 21.0 °F 30.35 in Calm     96% 0.00 in
03:56 22.0 °F 21.0 °F 30.34 in Calm     96% 0.00 in
04:01 22.0 °F 21.0 °F 30.34 in Calm     96% 0.00 in
04:06 22.1 °F 21.1 °F 30.34 in Calm     96% 0.00 in
04:11 22.2 °F 21.2 °F 30.34 in Calm     96% 0.00 in
04:16 22.4 °F 21.4 °F 30.34 in Calm     96% 0.00 in
04:21 22.4 °F 21.4 °F 30.34 in Calm     96% 0.00 in
04:26 22.3 °F 21.1 °F 30.34 in Calm     95% 0.00 in
04:31 22.3 °F 21.1 °F 30.34 in Calm     95% 0.00 in
04:36 22.2 °F 21.0 °F 30.34 in Calm     95% 0.00 in
04:41 22.2 °F 21.0 °F 30.34 in Calm     95% 0.00 in
04:46 22.2 °F 21.0 °F 30.34 in Calm     95% 0.00 in
04:51 22.2 °F 21.2 °F 30.34 in Calm     96% 0.00 in
04:56 22.2 °F 21.0 °F 30.35 in Calm     95% 0.00 in
05:01 22.2 °F 21.0 °F 30.35 in Calm     95% 0.00 in
05:06 22.2 °F 21.0 °F 30.35 in Calm     95% 0.00 in
05:11 22.2 °F 21.0 °F 30.35 in Calm     95% 0.00 in
05:16 22.2 °F 21.2 °F 30.36 in Calm     96% 0.00 in
05:21 22.2 °F 21.2 °F 30.36 in Calm     96% 0.00 in
05:26 22.3 °F 21.3 °F 30.36 in Calm     96% 0.00 in
05:31 22.4 °F 21.4 °F 30.36 in Calm     96% 0.00 in
05:36 22.5 °F 21.5 °F 30.36 in Calm     96% 0.00 in
05:41 22.5 °F 21.5 °F 30.36 in Calm     96% 0.00 in
05:46 22.5 °F 21.5 °F 30.36 in Calm     96% 0.00 in
05:51 22.5 °F 21.5 °F 30.36 in Calm     96% 0.00 in
05:56 22.5 °F 21.5 °F 30.36 in Calm     96% 0.00 in
06:01 22.4 °F 21.2 °F 30.36 in Calm     95% 0.00 in
06:06 22.5 °F 21.3 °F 30.36 in Calm     95% 0.00 in
06:11 22.5 °F 21.3 °F 30.36 in Calm     95% 0.00 in
06:16 22.4 °F 21.2 °F 30.36 in Calm     95% 0.00 in
06:21 22.4 °F 21.2 °F 30.37 in Calm     95% 0.00 in
06:26 22.4 °F 21.2 °F 30.37 in Calm     95% 0.00 in
06:31 22.4 °F 21.2 °F 30.36 in Calm     95% 0.00 in
06:36 22.4 °F 21.2 °F 30.36 in Calm     95% 0.00 in
06:41 22.3 °F 21.1 °F 30.36 in Calm     95% 0.00 in
06:46 22.3 °F 21.1 °F 30.36 in Calm     95% 0.00 in
06:51 22.3 °F 21.1 °F 30.36 in Calm     95% 0.00 in
06:56 22.3 °F 21.1 °F 30.36 in Calm     95% 0.00 in
07:01 22.3 °F 21.1 °F 30.36 in Calm     95% 0.00 in
07:06 22.2 °F 21.0 °F 30.36 in Calm     95% 0.00 in
07:11 22.2 °F 21.0 °F 30.36 in Calm     95% 0.00 in
07:16 22.2 °F 21.0 °F 30.36 in Calm     95% 0.00 in
07:21 22.2 °F 21.0 °F 30.36 in Calm     95% 0.00 in
07:26 22.2 °F 21.0 °F 30.36 in Calm     95% 0.00 in
07:31 22.2 °F 21.0 °F 30.36 in Calm     95% 0.00 in
07:36 22.2 °F 21.0 °F 30.36 in Calm     95% 0.00 in
07:41 22.2 °F 21.0 °F 30.36 in Calm     95% 0.00 in
07:46 22.2 °F 21.0 °F 30.36 in Calm     95% 0.00 in
07:51 22.2 °F 21.0 °F 30.36 in Calm     95% 0.00 in
07:56 22.2 °F 21.0 °F 30.36 in Calm     95% 0.00 in
08:01 22.2 °F 21.0 °F 30.36 in Calm     95% 0.00 in
08:06 22.2 °F 21.2 °F 30.36 in Calm     96% 0.00 in
08:11 22.3 °F 21.3 °F 30.36 in Calm     96% 0.00 in
08:16 22.3 °F 21.1 °F 30.36 in Calm     95% 0.00 in
08:21 22.3 °F 21.1 °F 30.36 in Calm     95% 0.00 in
08:26 22.1 °F 20.9 °F 30.35 in Calm     95% 0.00 in
08:31 22.0 °F 20.8 °F 30.35 in Calm     95% 0.00 in
08:36 21.7 °F 20.5 °F 30.35 in Calm     95% 0.00 in
08:41 21.5 °F 20.3 °F 30.35 in Calm     95% 0.00 in
08:46 21.3 °F 20.1 °F 30.35 in Calm     95% 0.00 in
08:51 21.1 °F 19.9 °F 30.35 in Calm     95% 0.00 in
08:56 20.9 °F 19.7 °F 30.35 in Calm     95% 0.00 in
09:01 21.0 °F 19.8 °F 30.35 in Calm     95% 0.00 in
09:06 21.1 °F 19.9 °F 30.35 in Calm     95% 0.00 in
09:11 21.6 °F 20.4 °F 30.36 in Calm     95% 0.00 in
09:16 22.1 °F 21.1 °F 30.36 in Calm     96% 0.00 in
09:21 22.5 °F 21.5 °F 30.36 in Calm     96% 0.00 in
09:26 23.0 °F 22.0 °F 30.36 in Calm     96% 0.00 in
09:31 23.5 °F 22.5 °F 30.36 in Calm     96% 0.00 in
09:36 23.9 °F 22.9 °F 30.36 in Calm     96% 0.00 in
09:41 24.2 °F 23.2 °F 30.36 in Calm     96% 0.00 in
09:46 24.7 °F 23.7 °F 30.36 in Calm     96% 0.00 in
09:51 24.8 °F 23.6 °F 30.36 in Calm     95% 0.00 in
09:56 24.9 °F 23.7 °F 30.36 in Calm     95% 0.00 in
10:01 24.9 °F 23.7 °F 30.36 in Calm     95% 0.00 in
10:06 24.9 °F 23.4 °F 30.36 in Calm     94% 0.00 in
10:11 25.0 °F 23.5 °F 30.36 in Calm     94% 0.00 in
10:16 25.1 °F 23.6 °F 30.36 in Calm     94% 0.00 in
10:21 25.2 °F 23.7 °F 30.36 in Calm     94% 0.00 in
10:26 25.3 °F 23.8 °F 30.35 in Calm     94% 0.00 in
10:31 25.2 °F 23.5 °F 30.35 in Calm     93% 0.00 in
10:36 25.6 °F 23.9 °F 30.35 in Calm     93% 0.00 in
10:41 25.8 °F 23.8 °F 30.34 in Calm     92% 0.00 in
10:46 25.8 °F 23.8 °F 30.34 in Calm     92% 0.00 in
10:51 26.0 °F 24.0 °F 30.34 in Calm     92% 0.00 in
10:56 25.7 °F 23.4 °F 30.34 in Calm     91% 0.00 in
11:01 25.7 °F 23.4 °F 30.34 in Calm     91% 0.00 in
11:06 25.7 °F 23.4 °F 30.34 in Calm     91% 0.00 in
11:11 25.7 °F 23.4 °F 30.34 in Calm     91% 0.00 in
11:16 26.1 °F 23.8 °F 30.33 in Calm     91% 0.00 in
11:21 26.6 °F 24.3 °F 30.33 in Calm     91% 0.00 in
11:26 27.1 °F 24.8 °F 30.33 in Calm     91% 0.00 in
11:31 27.1 °F 24.6 °F 30.33 in Calm     90% 0.00 in
11:36 26.9 °F 24.4 °F 30.33 in Calm     90% 0.00 in
11:41 27.0 °F 24.2 °F 30.32 in Calm     89% 0.00 in
11:46 26.7 °F 23.9 °F 30.32 in Calm     89% 0.00 in
11:51 26.7 °F 24.2 °F 30.32 in Calm     90% 0.00 in
11:56 27.0 °F 24.5 °F 30.32 in Calm     90% 0.00 in
12:01 27.4 °F 24.9 °F 30.32 in Calm     90% 0.00 in
12:06 28.0 °F 25.4 °F 30.31 in Calm     90% 0.00 in
12:11 28.5 °F 25.7 °F 30.31 in Calm     89% 0.00 in
12:16 28.7 °F 25.6 °F 30.31 in Calm     88% 0.00 in
12:21 29.1 °F 26.0 °F 30.31 in Calm     88% 0.00 in
12:26 29.3 °F 26.2 °F 30.30 in Calm     88% 0.00 in
12:31 29.2 °F 25.8 °F 30.31 in Calm     87% 0.00 in
12:36 29.2 °F 25.8 °F 30.31 in Calm     87% 0.00 in
12:41 29.1 °F 25.7 °F 30.31 in Calm     87% 0.00 in
12:46 29.2 °F 25.8 °F 30.31 in Calm     87% 0.00 in
12:51 28.7 °F 26.7 °F 30.31 in Calm     92% 0.00 in
12:56 27.6 °F 24.2 °F 30.31 in Calm     87% 0.00 in
13:01 26.7 °F 23.4 °F 30.31 in Calm     87% 0.00 in
13:06 26.2 °F 23.1 °F 30.31 in Calm     88% 0.00 in
13:11 26.3 °F 23.5 °F 30.31 in Calm     89% 0.00 in
13:16 26.6 °F 24.1 °F 30.31 in Calm     90% 0.00 in
13:21 26.6 °F 23.8 °F 30.31 in Calm     89% 0.00 in
13:26 26.6 °F 23.8 °F 30.31 in Calm     89% 0.00 in
13:31 26.5 °F 23.7 °F 30.30 in Calm     89% 0.00 in
13:36 26.2 °F 23.4 °F 30.30 in Calm     89% 0.00 in
13:41 26.2 °F 23.4 °F 30.30 in Calm     89% 0.00 in
13:46 26.4 °F 23.9 °F 30.29 in Calm     90% 0.00 in
13:51 26.8 °F 24.3 °F 30.29 in Calm     90% 0.00 in
13:56 27.1 °F 24.6 °F 30.28 in Calm     90% 0.00 in
14:00 27.2 °F 24.7 °F 30.28 in Calm     90% 0.00 in
14:06 27.0 °F 24.5 °F 30.28 in Calm     90% 0.00 in
14:11 27.2 °F 24.9 °F 30.28 in Calm     91% 0.00 in
14:16 27.1 °F 24.8 °F 30.28 in Calm     91% 0.00 in
14:20 27.3 °F 25.0 °F 30.27 in Calm     91% 0.00 in
14:26 27.6 °F 25.3 °F 30.28 in Calm     91% 0.00 in
14:31 27.6 °F 25.1 °F 30.27 in Calm     90% 0.00 in
14:36 27.3 °F 24.5 °F 30.27 in Calm     89% 0.00 in
14:40 27.0 °F 24.5 °F 30.27 in Calm     90% 0.00 in
14:46 27.0 °F 24.5 °F 30.27 in Calm     90% 0.00 in
14:51 27.0 °F 24.5 °F 30.27 in Calm     90% 0.00 in
14:56 27.1 °F 24.8 °F 30.28 in Calm     91% 0.00 in
15:00 27.4 °F 25.1 °F 30.28 in Calm     91% 0.00 in
15:06 27.5 °F 25.2 °F 30.28 in Calm     91% 0.00 in
15:11 27.6 °F 25.3 °F 30.28 in Calm     91% 0.00 in
15:15 27.6 °F 25.3 °F 30.28 in Calm     91% 0.00 in
15:21 27.6 °F 25.3 °F 30.28 in Calm     91% 0.00 in
15:26 27.2 °F 24.7 °F 30.27 in Calm     90% 0.00 in
15:31 26.4 °F 23.6 °F 30.28 in Calm     89% 0.00 in
15:35 25.8 °F 23.3 °F 30.27 in Calm     90% 0.00 in
15:40 25.4 °F 22.9 °F 30.28 in Calm     90% 0.00 in
15:46 25.2 °F 22.9 °F 30.28 in Calm     91% 0.00 in
15:51 25.1 °F 22.8 °F 30.28 in Calm     91% 0.00 in
15:55 25.1 °F 22.8 °F 30.28 in Calm     91% 0.00 in
16:00 25.0 °F 22.7 °F 30.28 in Calm     91% 0.00 in
16:06 24.8 °F 22.5 °F 30.28 in Calm     91% 0.00 in
16:11 24.7 °F 22.7 °F 30.28 in Calm     92% 0.00 in
16:15 24.5 °F 22.5 °F 30.28 in Calm     92% 0.00 in
16:21 24.4 °F 22.4 °F 30.28 in Calm     92% 0.00 in
16:26 24.3 °F 22.3 °F 30.29 in Calm     92% 0.00 in
16:31 24.3 °F 22.3 °F 30.28 in Calm     92% 0.00 in
16:35 24.4 °F 22.7 °F 30.28 in Calm     93% 0.00 in
16:40 24.5 °F 22.8 °F 30.28 in Calm     93% 0.00 in
16:46 24.5 °F 22.8 °F 30.28 in Calm     93% 0.00 in
16:51 24.4 °F 22.7 °F 30.27 in Calm     93% 0.00 in
16:55 24.4 °F 22.7 °F 30.27 in Calm     93% 0.00 in
17:00 24.3 °F 22.6 °F 30.27 in Calm     93% 0.00 in
17:05 24.1 °F 22.4 °F 30.28 in Calm     93% 0.00 in
17:11 24.1 °F 22.4 °F 30.28 in Calm     93% 0.00 in
17:16 24.1 °F 22.4 °F 30.28 in Calm     93% 0.00 in
17:20 24.2 °F 22.7 °F 30.28 in Calm     94% 0.00 in
17:25 24.5 °F 23.0 °F 30.28 in Calm     94% 0.00 in
17:31 24.6 °F 23.1 °F 30.28 in Calm     94% 0.00 in
17:35 24.8 °F 23.3 °F 30.28 in Calm     94% 0.00 in
17:40 24.8 °F 23.3 °F 30.28 in Calm     94% 0.00 in
17:45 24.7 °F 23.2 °F 30.28 in Calm     94% 0.00 in
17:51 24.8 °F 23.3 °F 30.28 in Calm     94% 0.00 in
17:56 24.4 °F 22.9 °F 30.27 in Calm     94% 0.00 in
18:00 24.2 °F 22.5 °F 30.27 in Calm     93% 0.00 in
18:05 24.1 °F 22.6 °F 30.27 in Calm     94% 0.00 in
18:10 24.2 °F 22.7 °F 30.27 in Calm     94% 0.00 in
18:15 24.2 °F 22.7 °F 30.27 in Calm     94% 0.00 in
18:21 24.2 °F 22.7 °F 30.27 in Calm     94% 0.00 in
18:25 24.1 °F 22.6 °F 30.27 in Calm     94% 0.00 in
18:30 24.2 °F 22.7 °F 30.27 in Calm     94% 0.00 in
18:35 24.3 °F 22.8 °F 30.27 in Calm     94% 0.00 in
18:41 24.3 °F 22.8 °F 30.26 in Calm     94% 0.00 in
18:45 24.4 °F 22.9 °F 30.26 in Calm     94% 0.00 in
18:50 24.5 °F 23.3 °F 30.26 in Calm     95% 0.00 in
18:55 24.7 °F 23.5 °F 30.27 in Calm     95% 0.00 in
19:00 24.9 °F 23.7 °F 30.27 in Calm     95% 0.00 in
19:05 25.2 °F 24.0 °F 30.27 in Calm     95% 0.00 in
19:10 25.4 °F 24.2 °F 30.27 in Calm     95% 0.00 in
19:15 25.6 °F 24.4 °F 30.27 in Calm     95% 0.00 in
19:20 25.3 °F 24.1 °F 30.27 in Calm     95% 0.00 in
19:25 25.0 °F 23.5 °F 30.27 in Calm     94% 0.00 in
19:30 24.8 °F 23.3 °F 30.27 in Calm     94% 0.00 in
19:35 24.7 °F 23.2 °F 30.26 in Calm     94% 0.00 in
19:40 24.8 °F 23.3 °F 30.26 in Calm     94% 0.00 in
19:45 24.6 °F 23.1 °F 30.26 in Calm     94% 0.00 in
Westford Weather
Compliments of Weather Underground

 
 
Current Radar Loop:

Copyright © WestfordWeather.net 2007-2014. All rights reserved.